createdAt,value
2016-05-13T00:00:09.243Z,93.4
2016-05-13T00:01:09.230Z,92.54
2016-05-13T00:02:09.092Z,92.69
2016-05-13T00:03:09.094Z,92.88
2016-05-13T00:04:09.253Z,93.35
2016-05-13T00:05:09.272Z,93.35
2016-05-13T00:06:09.306Z,93.35
2016-05-13T00:07:09.261Z,93.21
2016-05-13T00:08:09.264Z,93.16
2016-05-13T00:09:09.330Z,93.74
2016-05-13T00:10:09.254Z,93.12
2016-05-13T00:11:09.257Z,93.69
2016-05-13T00:12:09.104Z,93.26
2016-05-13T00:13:09.263Z,93.64
2016-05-13T00:14:09.124Z,93.3
2016-05-13T00:15:09.268Z,93.45
2016-05-13T00:16:09.270Z,93.45
2016-05-13T00:17:09.273Z,93.45
2016-05-13T00:18:09.275Z,93.55
2016-05-13T00:19:09.278Z,93.26
2016-05-13T00:20:09.282Z,94.02
2016-05-13T00:21:09.284Z,93.74
2016-05-13T00:22:09.287Z,93.93
2016-05-13T00:23:09.289Z,94.31
2016-05-13T00:24:09.136Z,94.31
2016-05-13T00:25:09.310Z,93.84
2016-05-13T00:26:09.297Z,94.21
2016-05-13T00:27:09.300Z,94.02
2016-05-13T00:28:09.303Z,93.64
2016-05-13T00:29:09.320Z,94.21
2016-05-13T00:30:09.292Z,94.12
2016-05-13T00:31:09.326Z,93.16
2016-05-13T00:32:09.141Z,93.64
2016-05-13T00:33:09.145Z,93.74
2016-05-13T00:34:09.303Z,93.45
2016-05-13T00:35:09.306Z,93.16
2016-05-13T00:36:09.324Z,93.16
2016-05-13T00:37:09.311Z,92.88
2016-05-13T00:38:09.313Z,92.97
2016-05-13T00:39:09.301Z,92.88
2016-05-13T00:40:09.304Z,92.92
2016-05-13T00:41:09.322Z,92.88
2016-05-13T00:42:09.341Z,92.4
2016-05-13T00:43:09.327Z,92.3
2016-05-13T00:44:09.330Z,92.97
2016-05-13T00:45:09.317Z,92.88
2016-05-13T00:46:09.320Z,92.59
2016-05-13T00:47:09.338Z,93.26
2016-05-13T00:48:09.326Z,92.59
2016-05-13T00:49:09.343Z,92.4
2016-05-13T00:50:09.331Z,92.59
2016-05-13T00:51:09.333Z,92.59
2016-05-13T00:52:09.336Z,92.69
2016-05-13T00:53:09.339Z,92.4
2016-05-13T00:54:09.341Z,92.78
2016-05-13T00:55:09.204Z,92.78
2016-05-13T00:56:09.190Z,92.3
2016-05-13T00:57:09.334Z,92.78
2016-05-13T00:58:09.337Z,92.69
2016-05-13T00:59:09.370Z,92.78
2016-05-13T01:00:09.342Z,92.78
2016-05-13T01:01:09.344Z,92.78
2016-05-13T01:02:09.374Z,92.59
2016-05-13T01:03:09.263Z,92.69
2016-05-13T01:04:09.467Z,92.69
2016-05-13T01:05:09.496Z,92.02
2016-05-13T01:06:09.543Z,92.35
2016-05-13T01:07:09.581Z,92.11
2016-05-13T01:08:09.600Z,92.4
2016-05-13T01:09:09.619Z,92.06
2016-05-13T01:10:09.637Z,92.69
2016-05-13T01:11:09.514Z,92.25
2016-05-13T01:12:09.655Z,92.02
2016-05-13T01:13:09.663Z,92.35
2016-05-13T01:14:09.687Z,92.88
2016-05-13T01:15:09.680Z,92.11
2016-05-13T01:16:09.688Z,92.3
2016-05-13T01:17:09.695Z,92.11
2016-05-13T01:18:09.715Z,91.92
2016-05-13T01:19:09.704Z,91.73
2016-05-13T01:20:09.708Z,91.83
2016-05-13T01:21:09.713Z,92.35
2016-05-13T01:22:09.717Z,91.35
2016-05-13T01:23:09.721Z,92.4
2016-05-13T01:24:13.287Z,92.4
2016-05-13T01:25:09.728Z,92.49
2016-05-13T01:26:09.576Z,91.58
2016-05-13T01:27:09.734Z,91.73
2016-05-13T01:28:09.738Z,91.44
2016-05-13T01:29:09.726Z,91.77
2016-05-13T01:30:09.743Z,91.53
2016-05-13T01:31:09.575Z,91.49
2016-05-13T01:32:09.750Z,92.4
2016-05-13T01:33:09.924Z,92.11
2016-05-13T01:34:09.740Z,92.4
2016-05-13T01:35:09.757Z,92.11
2016-05-13T01:36:09.745Z,91.35
2016-05-13T01:37:09.764Z,92.11
2016-05-13T01:38:09.751Z,92.49
2016-05-13T01:39:09.754Z,91.73
2016-05-13T01:40:09.756Z,92.49
2016-05-13T01:41:09.759Z,92.59
2016-05-13T01:42:09.762Z,92.97
2016-05-13T01:43:09.764Z,92.69
2016-05-13T01:44:09.610Z,92.3
2016-05-13T01:45:09.770Z,92.3
2016-05-13T01:46:09.756Z,92.4
2016-05-13T01:47:09.759Z,92.02
2016-05-13T01:48:09.778Z,92.49
2016-05-13T01:49:09.781Z,92.69
2016-05-13T01:50:09.799Z,92.21
2016-05-13T01:51:09.770Z,91.92
2016-05-13T01:52:09.632Z,92.88
2016-05-13T01:53:09.775Z,92.69
2016-05-13T01:54:09.794Z,92.3
2016-05-13T01:55:09.780Z,92.78
2016-05-13T01:56:09.783Z,92.3
2016-05-13T01:57:09.786Z,92.3
2016-05-13T01:58:09.789Z,92.11
2016-05-13T01:59:09.636Z,92.3
2016-05-13T02:00:09.638Z,92.21
2016-05-13T02:01:09.781Z,92.78
2016-05-13T02:02:09.783Z,92.49
2016-05-13T02:03:09.646Z,93.45
2016-05-13T02:04:09.789Z,92.88
2016-05-13T02:05:09.792Z,92.59
2016-05-13T02:06:09.654Z,92.88
2016-05-13T02:07:09.797Z,92.4
2016-05-13T02:08:09.799Z,93.26
2016-05-13T02:09:09.663Z,93.64
2016-05-13T02:10:09.805Z,93.55
2016-05-13T02:11:09.808Z,93.84
2016-05-13T02:12:09.811Z,92.78
2016-05-13T02:13:09.813Z,92.78
2016-05-13T02:14:09.815Z,92.78
2016-05-13T02:15:09.818Z,92.54
2016-05-13T02:16:09.822Z,92.69
2016-05-13T02:17:09.809Z,92.69
2016-05-13T02:18:09.890Z,92.3
2016-05-13T02:19:09.814Z,92.11
2016-05-13T02:20:09.816Z,92.3
2016-05-13T02:21:09.819Z,92.45
2016-05-13T02:22:09.837Z,92.97
2016-05-13T02:23:09.825Z,92.78
2016-05-13T02:24:09.843Z,93.45
2016-05-13T02:25:09.830Z,92.88
2016-05-13T02:26:09.833Z,93.45
2016-05-13T02:27:09.836Z,93.55
2016-05-13T02:28:09.822Z,93.26
2016-05-13T02:29:09.856Z,93.4
2016-05-13T02:30:09.828Z,94.26
2016-05-13T02:31:09.831Z,93.74
2016-05-13T02:32:09.833Z,94.17
2016-05-13T02:33:09.852Z,93.93
2016-05-13T02:34:09.838Z,94.02
2016-05-13T02:35:09.857Z,93.98
2016-05-13T02:36:09.859Z,93.4
2016-05-13T02:37:09.690Z,93.4
2016-05-13T02:38:09.694Z,93.69
2016-05-13T02:39:09.837Z,93.21
2016-05-13T02:40:09.855Z,93.79
2016-05-13T02:41:09.857Z,94.17
2016-05-13T02:42:09.860Z,93.88
2016-05-13T02:43:09.863Z,93.79
2016-05-13T02:44:09.865Z,93.31
2016-05-13T02:45:09.868Z,93.31
2016-05-13T02:46:09.856Z,93.5
2016-05-13T02:47:09.858Z,93.31
2016-05-13T02:48:09.876Z,93.21
2016-05-13T02:49:09.864Z,93.55
2016-05-13T02:50:09.882Z,93.45
2016-05-13T02:51:09.870Z,93.12
2016-05-13T02:52:09.872Z,93.4
2016-05-13T02:53:09.874Z,92.88
2016-05-13T02:54:09.877Z,93.55
2016-05-13T02:55:09.864Z,93.31
2016-05-13T02:56:09.866Z,93.07
2016-05-13T02:57:09.870Z,93.5
2016-05-13T02:58:09.716Z,93.5
2016-05-13T02:59:09.891Z,92.74
2016-05-13T03:00:09.877Z,92.64
2016-05-13T03:01:09.724Z,92.74
2016-05-13T03:02:09.883Z,92.64
2016-05-13T03:03:09.885Z,92.45
2016-05-13T03:04:09.904Z,93.4
2016-05-13T03:05:09.891Z,93.12
2016-05-13T03:06:09.894Z,93.69
2016-05-13T03:07:09.896Z,93.6
2016-05-13T03:08:09.758Z,93.31
2016-05-13T03:09:09.746Z,93.21
2016-05-13T03:10:09.905Z,93.02
2016-05-13T03:11:09.891Z,93.5
2016-05-13T03:12:09.910Z,92.83
2016-05-13T03:13:09.912Z,93.6
2016-05-13T03:14:09.915Z,93.4
2016-05-13T03:15:09.918Z,93.5
2016-05-13T03:16:09.936Z,93.6
2016-05-13T03:17:09.751Z,93.02
2016-05-13T03:18:09.926Z,93.31
2016-05-13T03:19:09.912Z,93.79
2016-05-13T03:20:09.915Z,93.5
2016-05-13T03:21:09.917Z,93.5
2016-05-13T03:22:09.936Z,93.4
2016-05-13T03:23:09.784Z,93.12
2016-05-13T03:24:09.926Z,93.5
2016-05-13T03:25:09.929Z,92.54
2016-05-13T03:26:09.916Z,92.83
2016-05-13T03:27:09.919Z,92.64
2016-05-13T03:28:09.922Z,93.02
2016-05-13T03:29:09.955Z,93.12
2016-05-13T03:30:09.927Z,92.25
2016-05-13T03:31:09.930Z,92.45
2016-05-13T03:32:09.932Z,92.07
2016-05-13T03:33:09.778Z,92.35
2016-05-13T03:34:09.922Z,91.11
2016-05-13T03:35:09.941Z,91.59
2016-05-13T03:36:09.928Z,91.97
2016-05-13T03:37:09.930Z,91.59
2016-05-13T03:38:09.933Z,90.92
2016-05-13T03:39:09.935Z,91.3
2016-05-13T03:40:09.954Z,91.3
2016-05-13T03:41:09.956Z,91.78
2016-05-13T03:42:09.944Z,91.49
2016-05-13T03:43:09.946Z,92.16
2016-05-13T03:44:09.933Z,92.64
2016-05-13T03:45:09.968Z,92.83
2016-05-13T03:46:09.954Z,92.07
2016-05-13T03:47:09.957Z,92.35
2016-05-13T03:48:09.960Z,93.12
2016-05-13T03:49:09.946Z,93.21
2016-05-13T03:50:09.949Z,93.31
2016-05-13T03:51:09.952Z,93.12
2016-05-13T03:52:09.954Z,93.69
2016-05-13T03:53:09.973Z,93.79
2016-05-13T03:54:09.960Z,94.26
2016-05-13T03:55:09.963Z,94.36
2016-05-13T03:56:09.809Z,94.26
2016-05-13T03:57:09.968Z,94.36
2016-05-13T03:58:09.986Z,93.98
2016-05-13T03:59:09.958Z,94.26
2016-05-13T04:00:09.961Z,94.17
2016-05-13T04:01:09.963Z,94.65
2016-05-13T04:02:09.967Z,94.55
2016-05-13T04:03:09.969Z,94.93
2016-05-13T04:04:09.972Z,94.84
2016-05-13T04:05:09.974Z,94.74
2016-05-13T04:06:09.961Z,94.65
2016-05-13T04:07:09.963Z,95.12
2016-05-13T04:08:09.983Z,95.41
2016-05-13T04:09:09.985Z,95.22
2016-05-13T04:10:09.988Z,94.84
2016-05-13T04:11:09.990Z,95.7
2016-05-13T04:12:09.993Z,95.51
2016-05-13T04:13:09.996Z,95.03
2016-05-13T04:14:09.983Z,95.7
2016-05-13T04:15:09.829Z,95.41
2016-05-13T04:16:09.988Z,95.32
2016-05-13T04:17:09.975Z,95.22
2016-05-13T04:18:09.978Z,94.84
2016-05-13T04:19:09.996Z,95.41
2016-05-13T04:20:09.984Z,95.51
2016-05-13T04:21:10.002Z,95.22
2016-05-13T04:22:09.989Z,95.32
2016-05-13T04:23:10.007Z,95.61
2016-05-13T04:24:09.837Z,96.27
2016-05-13T04:25:10.012Z,95.89
2016-05-13T04:26:10.030Z,95.98
2016-05-13T04:27:09.846Z,95.7
2016-05-13T04:28:09.989Z,96.56
2016-05-13T04:29:10.008Z,96.47
2016-05-13T04:30:09.854Z,95.89
2016-05-13T04:31:09.997Z,95.89
2016-05-13T04:32:10.000Z,95.98
2016-05-13T04:33:10.174Z,95.22
2016-05-13T04:34:10.021Z,95.32
2016-05-13T04:35:09.852Z,96.18
2016-05-13T04:36:10.011Z,95.7
2016-05-13T04:37:10.013Z,95.12
2016-05-13T04:38:10.016Z,95.22
2016-05-13T04:39:10.019Z,94.93
2016-05-13T04:40:10.022Z,95.03
2016-05-13T04:41:10.008Z,94.93
2016-05-13T04:42:10.043Z,94.74
2016-05-13T04:43:10.029Z,94.46
2016-05-13T04:44:10.032Z,93.79
2016-05-13T04:45:10.034Z,94.46
2016-05-13T04:46:09.866Z,94.17
2016-05-13T04:47:09.869Z,94.74
2016-05-13T04:48:10.340Z,94.93
2016-05-13T04:49:10.029Z,93.98
2016-05-13T04:50:10.032Z,94.07
2016-05-13T04:51:10.034Z,93.69
2016-05-13T04:52:10.037Z,94.07
2016-05-13T04:53:10.026Z,93.69
2016-05-13T04:54:10.043Z,94.07
2016-05-13T04:55:10.030Z,94.26
2016-05-13T04:56:10.033Z,93.69
2016-05-13T04:57:10.036Z,93.31
2016-05-13T04:58:09.882Z,92.64
2016-05-13T04:59:10.057Z,92.54
2016-05-13T05:00:10.044Z,93.31
2016-05-13T05:01:10.047Z,93.5
2016-05-13T05:02:10.049Z,93.69
2016-05-13T05:03:10.052Z,92.83
2016-05-13T05:04:10.039Z,92.35
2016-05-13T05:05:10.058Z,92.25
2016-05-13T05:06:10.061Z,92.54
2016-05-13T05:07:10.063Z,93.12
2016-05-13T05:08:10.050Z,92.25
2016-05-13T05:09:10.083Z,92.45
2016-05-13T05:10:09.914Z,92.45
2016-05-13T05:11:10.057Z,92.54
2016-05-13T05:12:10.092Z,92.25
2016-05-13T05:13:10.063Z,92.07
2016-05-13T05:14:10.066Z,92.83
2016-05-13T05:15:10.069Z,92.35
2016-05-13T05:16:10.055Z,92.45
2016-05-13T05:17:10.074Z,92.54
2016-05-13T05:18:10.076Z,92.54
2016-05-13T05:19:10.063Z,92.45
2016-05-13T05:20:10.082Z,92.54
2016-05-13T05:21:10.085Z,92.07
2016-05-13T05:22:10.071Z,91.68
2016-05-13T05:23:10.074Z,91.68
2016-05-13T05:24:09.920Z,91.3
2016-05-13T05:25:10.096Z,91.3
2016-05-13T05:26:10.082Z,91.49
2016-05-13T05:27:10.070Z,91.88
2016-05-13T05:28:10.072Z,91.88
2016-05-13T05:29:10.075Z,91.68
2016-05-13T05:30:10.092Z,91.68
2016-05-13T05:31:10.080Z,91.78
2016-05-13T05:32:09.928Z,91.88
2016-05-13T05:33:10.086Z,91.2
2016-05-13T05:34:10.120Z,91.3
2016-05-13T05:35:09.950Z,91.68
2016-05-13T05:36:09.938Z,91.88
2016-05-13T05:37:10.097Z,91.68
2016-05-13T05:38:10.114Z,91.3
2016-05-13T05:39:10.102Z,91.11
2016-05-13T05:40:10.089Z,90.92
2016-05-13T05:41:10.092Z,91.39
2016-05-13T05:42:10.094Z,91.49
2016-05-13T05:43:10.113Z,91.3
2016-05-13T05:44:10.099Z,91.68
2016-05-13T05:45:10.102Z,92.07
2016-05-13T05:46:10.104Z,91.78
2016-05-13T05:47:10.107Z,91.68
2016-05-13T05:48:10.111Z,91.59
2016-05-13T05:49:10.098Z,91.97
2016-05-13T05:50:10.116Z,91.53
2016-05-13T05:51:10.118Z,91.59
2016-05-13T05:52:10.121Z,92.4
2016-05-13T05:53:10.109Z,91.83
2016-05-13T05:54:10.111Z,90.67
2016-05-13T05:55:09.989Z,90.67
2016-05-13T05:56:10.131Z,90.39
2016-05-13T05:57:10.120Z,89.34
2016-05-13T05:58:10.122Z,89.87
2016-05-13T05:59:10.125Z,90.25
2016-05-13T06:00:10.128Z,90.06
2016-05-13T06:01:10.130Z,89.77
2016-05-13T06:02:10.133Z,89.48
2016-05-13T06:03:10.135Z,90.16
2016-05-13T06:04:09.966Z,89.96
2016-05-13T06:05:10.141Z,90.34
2016-05-13T06:06:09.987Z,89.39
2016-05-13T06:07:10.130Z,89.39
2016-05-13T06:08:10.133Z,89.58
2016-05-13T06:09:10.152Z,90.63
2016-05-13T06:10:10.155Z,90.63
2016-05-13T06:11:10.141Z,90.16
2016-05-13T06:12:10.159Z,90.34
2016-05-13T06:13:10.146Z,90.25
2016-05-13T06:14:10.149Z,90.63
2016-05-13T06:15:10.152Z,90.25
2016-05-13T06:16:10.154Z,89.96
2016-05-13T06:17:10.141Z,90.34
2016-05-13T06:18:10.363Z,90.82
2016-05-13T06:19:10.147Z,91.78
2016-05-13T06:20:10.166Z,91.49
2016-05-13T06:21:10.152Z,91.68
2016-05-13T06:22:10.155Z,91.3
2016-05-13T06:23:10.158Z,91.49
2016-05-13T06:24:10.160Z,92.16
2016-05-13T06:25:10.023Z,92.07
2016-05-13T06:26:10.165Z,91.88
2016-05-13T06:27:10.168Z,92.64
2016-05-13T06:28:10.156Z,92.74
2016-05-13T06:29:10.159Z,92.25
2016-05-13T06:30:10.161Z,92.74
2016-05-13T06:31:10.164Z,92.35
2016-05-13T06:32:10.166Z,91.97
2016-05-13T06:33:10.013Z,92.25
2016-05-13T06:34:10.172Z,92.07
2016-05-13T06:35:10.174Z,92.54
2016-05-13T06:36:10.192Z,92.45
2016-05-13T06:37:10.195Z,92.54
2016-05-13T06:38:10.182Z,92.45
2016-05-13T06:39:10.029Z,92.16
2016-05-13T06:40:10.188Z,92.83
2016-05-13T06:41:10.190Z,92.25
2016-05-13T06:42:10.177Z,92.64
2016-05-13T06:43:10.197Z,92.88
2016-05-13T06:44:10.041Z,92.11
2016-05-13T06:45:10.201Z,93.16
2016-05-13T06:46:10.204Z,92.3
2016-05-13T06:47:10.207Z,91.73
2016-05-13T06:48:10.210Z,91.06
2016-05-13T06:49:10.212Z,91.53
2016-05-13T06:50:10.043Z,91.35
2016-05-13T06:51:10.217Z,91.83
2016-05-13T06:52:10.204Z,92.4
2016-05-13T06:53:10.066Z,91.73
2016-05-13T06:54:10.209Z,92.11
2016-05-13T06:55:10.212Z,91.83
2016-05-13T06:56:10.215Z,90.48
2016-05-13T06:57:10.218Z,91.06
2016-05-13T06:58:10.221Z,90.96
2016-05-13T06:59:10.067Z,91.06
2016-05-13T07:00:10.225Z,90.72
2016-05-13T07:01:10.073Z,90.1
2016-05-13T07:02:10.232Z,89.24
2016-05-13T07:03:10.234Z,89.29
2016-05-13T07:04:10.237Z,89.86
2016-05-13T07:05:10.239Z,89
2016-05-13T07:06:10.242Z,89
2016-05-13T07:07:10.089Z,88.62
2016-05-13T07:08:10.247Z,89.48
2016-05-13T07:09:10.250Z,88.9
2016-05-13T07:10:10.252Z,88.13
2016-05-13T07:11:10.240Z,88.04
2016-05-13T07:12:10.242Z,88.23
2016-05-13T07:13:10.244Z,88.04
2016-05-13T07:14:10.092Z,87.85
2016-05-13T07:15:10.282Z,87.47
2016-05-13T07:16:10.253Z,88.43
2016-05-13T07:17:10.256Z,87.66
2016-05-13T07:18:10.258Z,87.37
2016-05-13T07:19:10.104Z,87.66
2016-05-13T07:20:10.280Z,87.95
2016-05-13T07:21:12.610Z,87.27
2016-05-13T07:22:10.285Z,87.95
2016-05-13T07:23:10.272Z,87.37
2016-05-13T07:24:10.275Z,87.47
2016-05-13T07:25:10.277Z,87.56
2016-05-13T07:26:10.295Z,88.04
2016-05-13T07:27:10.299Z,87.66
2016-05-13T07:28:10.270Z,87.27
2016-05-13T07:29:10.288Z,87.56
2016-05-13T07:30:10.291Z,88.04
2016-05-13T07:31:10.293Z,88.04
2016-05-13T07:32:10.281Z,88.04
2016-05-13T07:33:10.284Z,88.33
2016-05-13T07:34:10.317Z,88.71
2016-05-13T07:35:10.320Z,87.66
2016-05-13T07:36:10.306Z,87.18
2016-05-13T07:37:10.309Z,86.99
2016-05-13T07:38:10.312Z,86.9
2016-05-13T07:39:10.331Z,86.51
2016-05-13T07:40:10.302Z,86.61
2016-05-13T07:41:10.320Z,87.56
2016-05-13T07:42:10.323Z,87.76
2016-05-13T07:43:10.326Z,88.23
2016-05-13T07:44:10.173Z,88.13
2016-05-13T07:45:10.316Z,88.04
2016-05-13T07:46:10.333Z,87.76
2016-05-13T07:47:10.336Z,88.23
2016-05-13T07:48:10.339Z,88.13
2016-05-13T07:49:10.342Z,86.13
2016-05-13T07:50:10.345Z,86.9
2016-05-13T07:51:10.347Z,87.37
2016-05-13T07:52:10.335Z,87.66
2016-05-13T07:53:10.213Z,86.8
2016-05-13T07:54:10.340Z,86.9
2016-05-13T07:55:10.343Z,87.56
2016-05-13T07:56:10.360Z,87.95
2016-05-13T07:57:10.192Z,88.04
2016-05-13T07:58:10.351Z,87.56
2016-05-13T07:59:10.354Z,87.66
2016-05-13T08:00:10.356Z,87.18
2016-05-13T08:01:10.359Z,88.13
2016-05-13T08:02:10.362Z,87.56
2016-05-13T08:03:10.348Z,86.41
2016-05-13T08:04:10.382Z,85.55
2016-05-13T08:05:10.369Z,86.51
2016-05-13T08:06:10.498Z,86.41
2016-05-13T08:07:10.359Z,86.9
2016-05-13T08:08:10.378Z,87.56
2016-05-13T08:09:10.381Z,87.76
2016-05-13T08:10:10.446Z,87.95
2016-05-13T08:11:10.386Z,87.76
2016-05-13T08:12:10.232Z,88.13
2016-05-13T08:13:10.391Z,88.43
2016-05-13T08:14:10.409Z,87.37
2016-05-13T08:15:10.225Z,87.56
2016-05-13T08:16:10.400Z,86.9
2016-05-13T08:17:10.402Z,87.56
2016-05-13T08:18:10.420Z,88.52
2016-05-13T08:19:10.408Z,87.66
2016-05-13T08:20:10.410Z,88.62
2016-05-13T08:21:10.428Z,87.76
2016-05-13T08:22:10.415Z,87.56
2016-05-13T08:23:10.419Z,88.33
2016-05-13T08:24:10.405Z,87.56
2016-05-13T08:25:10.407Z,87.47
2016-05-13T08:26:10.442Z,87.37
2016-05-13T08:27:10.491Z,88.13
2016-05-13T08:28:10.432Z,88.13
2016-05-13T08:29:10.418Z,87.56
2016-05-13T08:30:10.421Z,87.61
2016-05-13T08:31:10.424Z,86.84
2016-05-13T08:32:10.270Z,86.74
2016-05-13T08:33:10.445Z,85.31
2016-05-13T08:34:10.448Z,85.69
2016-05-13T08:35:10.434Z,86.55
2016-05-13T08:36:10.437Z,85.69
2016-05-13T08:37:10.440Z,85.69
2016-05-13T08:38:10.443Z,86.74
2016-05-13T08:39:10.446Z,86.55
2016-05-13T08:40:10.448Z,86.74
2016-05-13T08:41:10.451Z,86.46
2016-05-13T08:42:10.438Z,84.83
2016-05-13T08:43:10.456Z,84.64
2016-05-13T08:44:10.459Z,85.98
2016-05-13T08:45:10.461Z,85.98
2016-05-13T08:46:10.480Z,86.46
2016-05-13T08:47:10.467Z,85.69
2016-05-13T08:48:10.611Z,85.69
2016-05-13T08:49:10.488Z,86.74
2016-05-13T08:50:10.460Z,84.83
2016-05-13T08:51:10.477Z,85.21
2016-05-13T08:52:10.465Z,85.12
2016-05-13T08:53:10.311Z,84.45
2016-05-13T08:54:10.330Z,83.97
2016-05-13T08:55:10.488Z,85.41
2016-05-13T08:56:10.491Z,84.92
2016-05-13T08:57:10.479Z,84.83
2016-05-13T08:58:10.496Z,84.83
2016-05-13T08:59:10.499Z,84.16
2016-05-13T09:00:10.502Z,84.55
2016-05-13T09:01:10.505Z,84.92
2016-05-13T09:02:10.492Z,84.64
2016-05-13T09:03:10.823Z,84.74
2016-05-13T09:04:10.497Z,84.83
2016-05-13T09:05:10.515Z,84.16
2016-05-13T09:06:10.503Z,84.35
2016-05-13T09:07:10.505Z,83.59
2016-05-13T09:08:10.523Z,83.68
2016-05-13T09:09:10.526Z,84.83
2016-05-13T09:10:10.514Z,85.69
2016-05-13T09:11:10.516Z,85.21
2016-05-13T09:12:10.519Z,84.83
2016-05-13T09:13:10.522Z,84.35
2016-05-13T09:14:10.525Z,84.26
2016-05-13T09:15:10.558Z,84.55
2016-05-13T09:16:10.576Z,84.74
2016-05-13T09:17:10.532Z,85.69
2016-05-13T09:18:10.535Z,84.92
2016-05-13T09:19:10.538Z,85.31
2016-05-13T09:20:10.541Z,85.6
2016-05-13T09:21:10.558Z,84.45
2016-05-13T09:22:10.546Z,85.02
2016-05-13T09:23:10.408Z,85.31
2016-05-13T09:24:10.551Z,85.31
2016-05-13T09:25:10.397Z,85.6
2016-05-13T09:26:10.557Z,85.55
2016-05-13T09:27:10.575Z,86.41
2016-05-13T09:28:10.562Z,87.56
2016-05-13T09:29:10.565Z,86.41
2016-05-13T09:30:10.567Z,87.66
2016-05-13T09:31:10.570Z,86.8
2016-05-13T09:32:10.573Z,86.36
2016-05-13T09:33:10.576Z,87.13
2016-05-13T09:34:10.578Z,87.56
2016-05-13T09:35:10.581Z,87.23
2016-05-13T09:36:10.568Z,87.03
2016-05-13T09:37:10.429Z,87.51
2016-05-13T09:38:10.589Z,87.18
2016-05-13T09:39:10.591Z,87.61
2016-05-13T09:40:10.610Z,88.33
2016-05-13T09:41:10.784Z,88.04
2016-05-13T09:42:10.584Z,88.52
2016-05-13T09:43:10.586Z,87.66
2016-05-13T09:44:10.589Z,87.66
2016-05-13T09:45:10.592Z,88.62
2016-05-13T09:46:10.438Z,88.04
2016-05-13T09:47:10.597Z,88.13
2016-05-13T09:48:12.334Z,88.23
2016-05-13T09:49:10.618Z,88.9
2016-05-13T09:50:10.621Z,88.23
2016-05-13T09:51:10.608Z,88.09
2016-05-13T09:52:10.610Z,88.57
2016-05-13T09:53:10.629Z,89.15
2016-05-13T09:54:10.616Z,89.05
2016-05-13T09:55:10.462Z,88.95
2016-05-13T09:56:10.621Z,89.62
2016-05-13T09:57:10.624Z,89.62
2016-05-13T09:58:10.626Z,89.38
2016-05-13T09:59:10.630Z,90.15
2016-05-13T10:00:10.632Z,88.81
2016-05-13T10:01:10.635Z,87.56
2016-05-13T10:02:10.637Z,88.33
2016-05-13T10:03:10.515Z,88.33
2016-05-13T10:04:10.643Z,89
2016-05-13T10:05:10.661Z,88.62
2016-05-13T10:06:10.648Z,89.86
2016-05-13T10:07:10.635Z,90.05
2016-05-13T10:08:10.656Z,88.9
2016-05-13T10:09:10.734Z,88.33
2016-05-13T10:10:10.763Z,89
2016-05-13T10:11:10.809Z,89.09
2016-05-13T10:12:10.838Z,89
2016-05-13T10:13:10.872Z,89.38
2016-05-13T10:14:10.906Z,89.29
2016-05-13T10:15:10.908Z,89.19
2016-05-13T10:16:10.769Z,89.09
2016-05-13T10:17:10.804Z,89.95
2016-05-13T10:18:10.989Z,90.53
2016-05-13T10:19:10.997Z,90.82
2016-05-13T10:20:10.989Z,91.3
2016-05-13T10:21:11.013Z,89.86
2016-05-13T10:22:10.989Z,90.44
2016-05-13T10:23:10.996Z,90.72
2016-05-13T10:24:11.000Z,90.72
2016-05-13T10:25:11.021Z,90.72
2016-05-13T10:26:11.010Z,90.72
2016-05-13T10:27:11.015Z,91.3
2016-05-13T10:28:11.034Z,91.58
2016-05-13T10:29:11.038Z,92.16
2016-05-13T10:30:11.041Z,91.92
2016-05-13T10:31:11.044Z,92.49
2016-05-13T10:32:11.048Z,91.63
2016-05-13T10:33:11.677Z,92.4
2016-05-13T10:34:11.054Z,92.49
2016-05-13T10:35:10.901Z,92.11
2016-05-13T10:36:11.061Z,92.49
2016-05-13T10:37:11.033Z,92.02
2016-05-13T10:38:11.050Z,92.3
2016-05-13T10:39:11.053Z,92.4
2016-05-13T10:40:11.041Z,92.69
2016-05-13T10:41:11.059Z,92.11
2016-05-13T10:42:10.921Z,92.11
2016-05-13T10:43:11.064Z,92.63
2016-05-13T10:44:11.067Z,92.16
2016-05-13T10:45:11.069Z,92.88
2016-05-13T10:46:11.057Z,92.4
2016-05-13T10:47:11.074Z,92.25
2016-05-13T10:48:11.671Z,92.73
2016-05-13T10:49:11.080Z,92.25
2016-05-13T10:50:11.083Z,92.83
2016-05-13T10:51:10.914Z,92.25
2016-05-13T10:52:11.074Z,92.63
2016-05-13T10:53:10.919Z,91.49
2016-05-13T10:54:11.078Z,92.35
2016-05-13T10:55:11.081Z,91.77
2016-05-13T10:56:11.068Z,92.44
2016-05-13T10:57:11.086Z,91.77
2016-05-13T10:58:11.090Z,91.68
2016-05-13T10:59:11.092Z,91.68
2016-05-13T11:00:12.047Z,91.77
2016-05-13T11:01:11.112Z,91.58
2016-05-13T11:02:11.100Z,91.58
2016-05-13T11:03:11.353Z,91.2
2016-05-13T11:04:11.105Z,91.49
2016-05-13T11:05:11.123Z,91.58
2016-05-13T11:06:11.095Z,91.97
2016-05-13T11:07:11.113Z,91.3
2016-05-13T11:08:11.116Z,91.01
2016-05-13T11:09:11.119Z,89.9
2016-05-13T11:10:10.965Z,90.29
2016-05-13T11:11:11.139Z,89.9
2016-05-13T11:12:11.127Z,90.29
2016-05-13T11:13:11.130Z,89.04
2016-05-13T11:14:11.147Z,89.14
2016-05-13T11:15:10.978Z,88.95
2016-05-13T11:16:11.137Z,88.18
2016-05-13T11:17:11.155Z,88.95
2016-05-13T11:18:11.861Z,88.56
2016-05-13T11:19:11.146Z,88.09
2016-05-13T11:20:11.148Z,88.66
2016-05-13T11:21:11.151Z,88.37
2016-05-13T11:22:11.169Z,88.56
2016-05-13T11:23:11.141Z,88.28
2016-05-13T11:24:11.159Z,88.76
2016-05-13T11:25:11.177Z,89.14
2016-05-13T11:26:11.165Z,89.14
2016-05-13T11:27:11.276Z,89.04
2016-05-13T11:28:11.170Z,89.37
2016-05-13T11:29:11.173Z,88.99
2016-05-13T11:30:11.003Z,88.37
2016-05-13T11:31:11.178Z,87.46
2016-05-13T11:32:11.165Z,87.74
2016-05-13T11:33:11.261Z,87.84
2016-05-13T11:34:11.248Z,88.32
2016-05-13T11:35:11.017Z,88.23
2016-05-13T11:36:11.175Z,88.7
2016-05-13T11:37:11.194Z,87.65
2016-05-13T11:38:11.197Z,86.98
2016-05-13T11:39:11.200Z,87.65
2016-05-13T11:40:11.186Z,87.46
2016-05-13T11:41:11.189Z,87.46
2016-05-13T11:42:11.207Z,86.6
2016-05-13T11:43:11.194Z,86.83
2016-05-13T11:44:11.213Z,85.97
2016-05-13T11:45:11.043Z,85.11
2016-05-13T11:46:11.202Z,85.01
2016-05-13T11:47:11.205Z,85.78
2016-05-13T11:48:11.208Z,84.82
2016-05-13T11:49:11.227Z,84.58
2016-05-13T11:50:11.058Z,85.72
2016-05-13T11:51:11.247Z,82.85
2016-05-13T11:52:11.249Z,82.85
2016-05-13T11:53:11.080Z,82.37
2016-05-13T11:54:11.224Z,81.45
2016-05-13T11:55:11.243Z,81.35
2016-05-13T11:56:11.088Z,81.16
2016-05-13T11:57:11.263Z,80.87
2016-05-13T11:58:11.266Z,79.63
2016-05-13T11:59:11.253Z,79.44
2016-05-13T12:00:11.271Z,80.58
2016-05-13T12:01:11.273Z,79.76
2016-05-13T12:02:11.293Z,78.03
2016-05-13T12:03:11.123Z,77.65
2016-05-13T12:04:11.282Z,77.75
2016-05-13T12:05:11.285Z,77.94
2016-05-13T12:06:11.303Z,78.7
2016-05-13T12:07:11.322Z,79.19
2016-05-13T12:08:11.309Z,79.67
2016-05-13T12:09:11.311Z,79.28
2016-05-13T12:10:11.314Z,79.67
2016-05-13T12:11:11.333Z,79.28
2016-05-13T12:12:11.335Z,80.4
2016-05-13T12:13:11.338Z,79.47
2016-05-13T12:14:11.355Z,78.52
2016-05-13T12:15:11.327Z,78.09
2016-05-13T12:16:11.330Z,80.3
2016-05-13T12:17:11.349Z,80.58
2016-05-13T12:18:11.210Z,80.97
2016-05-13T12:19:11.338Z,80.2
2016-05-13T12:20:11.185Z,80.2
2016-05-13T12:21:11.360Z,80.2
2016-05-13T12:22:11.205Z,80.4
2016-05-13T12:23:11.224Z,80.68
2016-05-13T12:24:11.382Z,82.6
2016-05-13T12:25:11.230Z,80.55
2016-05-13T12:26:11.373Z,80.74
2016-05-13T12:27:11.391Z,81.02
2016-05-13T12:28:11.410Z,81.6
2016-05-13T12:29:11.381Z,81.35
2016-05-13T12:30:11.415Z,80.49
2016-05-13T12:31:11.402Z,79.68
2016-05-13T12:32:11.420Z,80.45
2016-05-13T12:33:11.423Z,80.16
2016-05-13T12:34:11.410Z,79.78
2016-05-13T12:35:11.412Z,79.59
2016-05-13T12:36:11.259Z,79.97
2016-05-13T12:37:11.262Z,80.93
2016-05-13T12:38:11.420Z,80.93
2016-05-13T12:39:11.424Z,80.26
2016-05-13T12:40:11.426Z,80.55
2016-05-13T12:41:11.444Z,80.74
2016-05-13T12:42:11.432Z,81.22
2016-05-13T12:43:11.434Z,81.31
2016-05-13T12:44:11.437Z,79.88
2016-05-13T12:45:11.456Z,79.97
2016-05-13T12:46:11.473Z,80.74
2016-05-13T12:47:11.320Z,81.89
2016-05-13T12:48:11.478Z,79.68
2016-05-13T12:49:11.481Z,80.64
2016-05-13T12:50:11.469Z,80.97
2016-05-13T12:51:11.486Z,78.67
2016-05-13T12:52:11.474Z,79.14
2016-05-13T12:53:11.477Z,79.82
2016-05-13T12:54:11.479Z,79.91
2016-05-13T12:55:11.482Z,78.96
2016-05-13T12:56:11.499Z,79.14